createdAt,value
2023-05-07T00:00:44.174Z,4.75
2023-05-07T00:06:06.042Z,5.18
2023-05-07T00:11:29.238Z,5.40
2023-05-07T00:16:51.068Z,5.10
2023-05-07T00:22:12.994Z,4.43
2023-05-07T00:27:34.763Z,4.18
2023-05-07T00:32:56.512Z,4.40
2023-05-07T00:38:18.223Z,4.80
2023-05-07T00:43:40.049Z,4.40
2023-05-07T00:49:02.041Z,4.40
2023-05-07T00:54:23.792Z,4.60
2023-05-07T00:59:45.636Z,4.40
2023-05-07T01:05:10.409Z,4.80
2023-05-07T01:10:33.077Z,4.05
2023-05-07T01:15:54.924Z,4.30
2023-05-07T01:21:18.574Z,3.95
2023-05-07T01:26:40.948Z,3.83
2023-05-07T01:32:04.308Z,3.58
2023-05-07T01:37:26.705Z,4.00
2023-05-07T01:42:49.208Z,3.92
2023-05-07T01:48:12.559Z,3.67
2023-05-07T01:53:38.019Z,3.80
2023-05-07T01:58:59.736Z,3.17
2023-05-07T02:04:22.046Z,4.40
2023-05-07T02:09:43.710Z,3.88
2023-05-07T02:15:06.499Z,4.05
2023-05-07T02:20:28.414Z,4.03
2023-05-07T02:25:50.204Z,5.75
2023-05-07T02:31:11.937Z,4.00
2023-05-07T02:36:33.618Z,3.50
2023-05-07T02:41:55.336Z,3.58
2023-05-07T02:47:17.034Z,3.42
2023-05-07T02:52:38.783Z,3.50
2023-05-07T02:58:00.502Z,4.00
2023-05-07T03:03:22.345Z,3.60
2023-05-07T03:08:44.356Z,3.83
2023-05-07T03:14:06.168Z,3.70
2023-05-07T03:19:27.867Z,3.88
2023-05-07T03:24:49.566Z,4.03
2023-05-07T03:30:12.335Z,3.75
2023-05-07T03:35:34.235Z,4.25
2023-05-07T03:40:56.014Z,4.50
2023-05-07T03:46:17.772Z,4.43
2023-05-07T03:51:39.504Z,3.90
2023-05-07T03:57:01.234Z,4.32
2023-05-07T04:02:22.970Z,4.32
2023-05-07T04:07:45.437Z,4.95
2023-05-07T04:13:07.237Z,4.40
2023-05-07T04:18:29.313Z,5.00
2023-05-07T04:23:51.020Z,4.50
2023-05-07T04:29:13.037Z,4.40
2023-05-07T04:34:34.736Z,4.07
2023-05-07T04:39:56.514Z,4.13
2023-05-07T04:45:18.438Z,4.65
2023-05-07T04:50:40.186Z,4.28
2023-05-07T04:56:01.945Z,3.97
2023-05-07T05:01:23.702Z,3.90
2023-05-07T05:06:45.789Z,4.50
2023-05-07T05:12:08.323Z,4.28
2023-05-07T05:17:30.145Z,4.95
2023-05-07T05:22:51.878Z,4.45
2023-05-07T05:28:13.545Z,4.50
2023-05-07T05:33:35.550Z,4.85
2023-05-07T05:38:57.258Z,5.20
2023-05-07T05:44:18.960Z,5.13
2023-05-07T05:49:40.743Z,4.93
2023-05-07T05:55:02.433Z,5.53
2023-05-07T06:00:24.389Z,5.90
2023-05-07T06:05:46.177Z,5.07
2023-05-07T06:11:07.930Z,5.22
2023-05-07T06:16:30.001Z,5.30
2023-05-07T06:21:51.782Z,5.50
2023-05-07T06:27:13.556Z,5.63
2023-05-07T06:32:35.307Z,5.53
2023-05-07T06:37:57.018Z,6.47
2023-05-07T06:43:18.753Z,5.97
2023-05-07T06:48:40.451Z,5.72
2023-05-07T06:54:02.444Z,5.07
2023-05-07T06:59:24.740Z,5.57
2023-05-07T07:04:46.625Z,5.20
2023-05-07T07:10:09.010Z,5.60
2023-05-07T07:15:30.925Z,5.05
2023-05-07T07:20:52.685Z,4.43
2023-05-07T07:26:14.401Z,5.07
2023-05-07T07:31:36.129Z,4.50
2023-05-07T07:36:57.899Z,5.65
2023-05-07T07:42:19.626Z,4.10
2023-05-07T07:47:41.635Z,4.20
2023-05-07T07:53:03.434Z,3.63
2023-05-07T07:58:25.832Z,3.60
2023-05-07T08:03:47.875Z,3.35
2023-05-07T08:09:09.849Z,2.92
2023-05-07T08:14:31.628Z,3.05
2023-05-07T08:19:53.349Z,2.50
2023-05-07T08:25:15.063Z,2.90
2023-05-07T08:30:36.842Z,3.10
2023-05-07T08:35:58.517Z,2.35
2023-05-07T08:41:21.273Z,2.67
2023-05-07T08:46:44.472Z,2.95
2023-05-07T08:52:08.675Z,2.50
2023-05-07T08:57:31.655Z,2.38
2023-05-07T09:02:54.287Z,2.78
2023-05-07T09:08:17.056Z,2.30
2023-05-07T09:13:38.809Z,2.30
2023-05-07T09:19:01.633Z,2.00
2023-05-07T09:24:23.338Z,2.13
2023-05-07T09:29:46.075Z,2.42
2023-05-07T09:35:16.870Z,1.80
2023-05-07T09:40:38.688Z,1.60
2023-05-07T09:46:25.310Z,2.08
2023-05-07T09:51:50.510Z,2.15
2023-05-07T09:57:13.787Z,2.30
2023-05-07T10:02:37.154Z,1.88
2023-05-07T10:07:59.673Z,1.90
2023-05-07T10:13:22.222Z,2.30
2023-05-07T10:18:44.740Z,1.90
2023-05-07T10:24:14.884Z,1.92
2023-05-07T10:29:42.338Z,2.08
2023-05-07T10:35:07.850Z,1.75
2023-05-07T10:40:29.633Z,1.92
2023-05-07T10:46:10.808Z,2.15
2023-05-07T10:51:36.658Z,1.90
2023-05-07T10:57:44.529Z,1.50
2023-05-07T11:03:07.837Z,2.00
2023-05-07T11:08:57.082Z,1.92
2023-05-07T11:14:40.936Z,1.70
2023-05-07T11:20:03.552Z,1.95
2023-05-07T11:25:26.413Z,1.80
2023-05-07T11:30:48.405Z,1.98
2023-05-07T11:36:10.763Z,1.90
2023-05-07T11:41:40.802Z,2.03
2023-05-07T11:47:03.141Z,1.83
2023-05-07T11:52:25.723Z,2.20
2023-05-07T11:57:47.548Z,1.70
2023-05-07T12:03:09.386Z,1.80
2023-05-07T12:08:31.331Z,1.90
2023-05-07T12:13:58.823Z,1.70
2023-05-07T12:19:21.900Z,2.20
2023-05-07T12:24:57.384Z,2.10
2023-05-07T12:30:19.272Z,4.15
2023-05-07T12:35:43.363Z,4.00
2023-05-07T12:41:08.024Z,3.15
2023-05-07T12:46:29.849Z,3.45
2023-05-07T12:51:51.815Z,3.70
2023-05-07T12:57:13.495Z,3.45
2023-05-07T13:02:38.878Z,1.60
2023-05-07T13:08:00.760Z,2.42
2023-05-07T13:13:22.811Z,2.28
2023-05-07T13:18:46.874Z,2.10
2023-05-07T13:24:08.842Z,2.20
2023-05-07T13:29:31.269Z,2.60
2023-05-07T13:34:52.978Z,2.40
2023-05-07T13:40:14.762Z,2.80
2023-05-07T13:45:36.536Z,2.03
2023-05-07T13:50:58.274Z,1.85
2023-05-07T13:56:21.161Z,1.80
2023-05-07T14:01:42.941Z,1.52
2023-05-07T14:07:04.791Z,1.42
2023-05-07T14:12:26.479Z,1.90
2023-05-07T14:17:48.241Z,1.60
2023-05-07T14:23:10.564Z,2.00
2023-05-07T14:28:32.412Z,1.85
2023-05-07T14:33:54.527Z,2.60
2023-05-07T14:39:16.484Z,2.55
2023-05-07T14:44:38.271Z,1.98
2023-05-07T14:50:01.988Z,2.42
2023-05-07T14:55:24.078Z,3.30
2023-05-07T15:00:45.796Z,2.78
2023-05-07T15:06:07.673Z,3.60
2023-05-07T15:11:29.603Z,4.95
2023-05-07T15:16:51.346Z,3.78
2023-05-07T15:22:13.093Z,3.17
2023-05-07T15:27:34.866Z,4.30
2023-05-07T15:32:56.702Z,3.47
2023-05-07T15:38:18.485Z,4.00
2023-05-07T15:43:47.066Z,2.45
2023-05-07T15:49:08.831Z,2.60
2023-05-07T15:54:31.059Z,3.10
2023-05-07T15:59:52.776Z,3.42
2023-05-07T16:05:14.731Z,3.30
2023-05-07T16:10:36.530Z,3.53
2023-05-07T16:15:59.592Z,3.15
2023-05-07T16:21:21.363Z,3.25
2023-05-07T16:26:43.137Z,3.33
2023-05-07T16:32:05.221Z,3.50
2023-05-07T16:37:26.926Z,4.03
2023-05-07T16:42:48.777Z,3.67
2023-05-07T16:48:10.746Z,3.67
2023-05-07T16:53:32.886Z,4.40
2023-05-07T16:58:55.583Z,4.38
2023-05-07T17:04:17.267Z,3.75
2023-05-07T17:09:39.039Z,3.60
2023-05-07T17:15:00.779Z,4.28
2023-05-07T17:20:23.511Z,5.15
2023-05-07T17:25:45.687Z,5.15
2023-05-07T17:31:07.689Z,5.60
2023-05-07T17:36:29.444Z,4.32
2023-05-07T17:41:51.231Z,4.45
2023-05-07T17:47:14.197Z,4.00
2023-05-07T17:52:36.507Z,4.85
2023-05-07T17:57:58.369Z,4.40
2023-05-07T18:03:20.402Z,4.10
2023-05-07T18:08:42.275Z,3.97
2023-05-07T18:14:04.088Z,4.45
2023-05-07T18:19:27.009Z,5.03
2023-05-07T18:24:49.511Z,5.07
2023-05-07T18:30:11.790Z,3.83
2023-05-07T18:35:34.098Z,4.40
2023-05-07T18:41:03.750Z,4.80
2023-05-07T18:46:25.679Z,4.68
2023-05-07T18:51:47.418Z,5.32
2023-05-07T18:57:09.328Z,4.65
2023-05-07T19:02:31.077Z,6.53
2023-05-07T19:07:53.199Z,4.55
2023-05-07T19:13:15.017Z,4.45
2023-05-07T19:18:36.950Z,5.20
2023-05-07T19:23:58.716Z,5.20
2023-05-07T19:29:20.487Z,4.93
2023-05-07T19:34:42.186Z,5.20
2023-05-07T19:40:06.105Z,6.93
2023-05-07T19:45:27.990Z,7.13
2023-05-07T19:50:49.840Z,7.40
2023-05-07T19:56:12.867Z,6.18
2023-05-07T20:01:34.738Z,6.43
2023-05-07T20:06:57.438Z,6.38
2023-05-07T20:12:21.281Z,6.43
2023-05-07T20:17:43.167Z,6.43
2023-05-07T20:23:05.027Z,6.50
2023-05-07T20:28:27.142Z,5.93
2023-05-07T20:33:48.870Z,6.05
2023-05-07T20:39:14.499Z,6.38
2023-05-07T20:44:36.378Z,7.15
2023-05-07T20:49:58.078Z,6.60
2023-05-07T20:55:19.772Z,7.00
2023-05-07T21:00:41.437Z,7.40
2023-05-07T21:06:04.097Z,7.35
2023-05-07T21:11:25.899Z,7.78
2023-05-07T21:16:47.691Z,8.38
2023-05-07T21:22:09.442Z,11.02
2023-05-07T21:27:31.220Z,10.90
2023-05-07T21:32:55.378Z,9.45
2023-05-07T21:38:18.683Z,9.95
2023-05-07T21:43:40.574Z,9.90
2023-05-07T21:49:02.318Z,9.50
2023-05-07T21:54:24.153Z,10.30
2023-05-07T21:59:45.888Z,9.88
2023-05-07T22:05:07.990Z,8.85
2023-05-07T22:10:30.260Z,9.23
2023-05-07T22:15:57.332Z,8.65
2023-05-07T22:21:20.576Z,9.50
2023-05-07T22:26:42.290Z,10.02
2023-05-07T22:32:04.192Z,9.65
2023-05-07T22:37:26.866Z,9.88
2023-05-07T22:42:48.595Z,10.30
2023-05-07T22:48:10.411Z,10.75
2023-05-07T22:53:32.184Z,11.05
2023-05-07T22:58:53.860Z,10.82
2023-05-07T23:04:15.631Z,9.95
2023-05-07T23:09:37.330Z,10.18
2023-05-07T23:14:59.048Z,9.75
2023-05-07T23:20:20.799Z,10.40
2023-05-07T23:25:42.497Z,9.73
2023-05-07T23:31:07.270Z,10.50
2023-05-07T23:36:28.976Z,10.35
2023-05-07T23:41:50.685Z,11.40
2023-05-07T23:47:12.387Z,11.77
2023-05-07T23:52:34.052Z,12.07
2023-05-07T23:57:55.871Z,12.25
